Stockton, KS

4:06 PM CST on February 07, 2016 (GMT -0600)
Heritage Insurance Group, Inc | | Change Station
CLOSE
Current Station
Personal Weather Station
Location: Stockton, KS
Elevation: 1804 ft
Nearby Weather Stations

Elev 1804 ft 39.44 °N, 99.27 °W | Updated 12 seconds ago

Mostly Cloudy
Mostly Cloudy
44.2 °F
Feels Like 37 °F
N
15.4
Wind Variable Wind from WNW
Gusts 19.9 mph

Today
High -- | Low -- °F
--% Chance of Precip.
Yesterday
High -- | Low -- °F
Precip. -- in
Pressure 30.24 in
Visibility 10.0 miles
Clouds Few 10000 ft
Windchill 37 °F
Dew Point 21 °F
Humidity 40%
Rainfall 0.00 in
Snow Depth Not available.
7:38 AM 6:04 PM
Waning Crescent, 1% visible
METAR KHLC 072153Z AUTO 32022G32KT 10SM FEW100 04/M06 A3020 RMK AO2 PK WND 32032/2148 SLP240 T00441056
Pressure 30.24 in
Visibility 10.0 miles
Clouds Few 10000 ft
Windchill 37 °F
Dew Point 21 °F
Humidity 40%
Rainfall 0.00 in
Snow Depth Not available.
7:38 AM 6:04 PM
Waning Crescent, 1% visible
METAR KHLC 072153Z AUTO 32022G32KT 10SM FEW100 04/M06 A3020 RMK AO2 PK WND 32032/2148 SLP240 T00441056

10-Day Weather Forecast

Almanac

Astronomy

Feb. 07, 2016 Rise Set
Actual Time
Civil Twilight
Nautical Twilight
Astronomical Twilight
Moon
Length of Visible Light
Length of Day
Tomorrow will be .
, % of the Moon is Illuminated

Today's Extremes

State Highs State Lows

Community

WunderPhotos

Upload Photos

1,891,304 photos uploaded!

WunderBlog® & News

Nearby

Air Quality

  Air Quality AQ Index Pollutant
Not available.

Snow Depth

Station Depth Elevation

Earthquake Activity

City Distance Mag. Time & Date
Minimum magnitude displayed is 2.5.

Coastal Water Temperatures

Place Temperature

Stations

Nearby Weather Stations

Station Location Temp. Windchill Dew Point Humidity Wind Precip. Elev Updated Type
                   

Watches & Warnings

There are currently no watches in effect.